Time;durP1;ratioP1;P1;durP2;ratioP2;P2;SDS_P1;SDS_P2;PMS_P1;PMS_P2;Temp;Humidity;BMP_temperature;BMP_pressure;BME280_temperature;BME280_humidity;BME280_pressure;Samples;Min_cycle;Max_cycle;Signal;HPM_P1;HPM_P2
2021/04/06 00:02:12;;;;;;;23.45;17.90;;;230.50;1740.80;;;;;;5094723;28;20422;-69
2021/04/06 00:04:41;;;;;;;24.42;17.27;;;230.50;1740.80;;;;;;5094608;28;20469;-68
2021/04/06 00:07:11;;;;;;;27.17;17.63;;;230.40;1740.80;;;;;;5094610;28;20610;-68
2021/04/06 00:09:40;;;;;;;20.73;17.27;;;230.50;1740.80;;;;;;5095005;28;20361;-69
2021/04/06 00:12:08;;;;;;;25.30;17.45;;;230.40;1740.80;;;;;;5094635;28;20372;-68
2021/04/06 00:14:36;;;;;;;21.25;17.13;;;230.50;1740.80;;;;;;5094469;28;20480;-68
2021/04/06 00:17:06;;;;;;;32.20;17.95;;;230.50;1740.80;;;;;;5094487;28;20365;-69
2021/04/06 00:19:34;;;;;;;24.88;17.25;;;230.50;1740.80;;;;;;5094756;28;20490;-68
2021/04/06 00:22:02;;;;;;;21.05;16.25;;;230.50;1715.20;;;;;;5094989;28;20356;-68
2021/04/06 00:24:30;;;;;;;22.58;17.00;;;230.50;1715.20;;;;;;5094469;28;20395;-68
2021/04/06 00:27:25;;;;;;;22.73;15.93;;;230.50;1715.20;;;;;;5094296;28;20419;-68
2021/04/06 00:30:02;;;;;;;;;;;230.50;1715.20;;;;;;5093474;28;20404;-68
2021/04/06 00:32:29;;;;;;;23.88;16.45;;;230.60;1715.20;;;;;;5094161;28;20322;-67
2021/04/06 00:35:00;;;;;;;21.73;15.80;;;230.60;1689.60;;;;;;5094087;28;20427;-69
2021/04/06 00:37:28;;;;;;;22.25;16.48;;;230.60;1689.60;;;;;;5094099;28;20024;-68
2021/04/06 00:40:06;;;;;;;20.48;15.15;;;230.70;1689.60;;;;;;5094015;28;20419;-68
2021/04/06 00:42:34;;;;;;;21.80;15.15;;;230.60;1689.60;;;;;;5094318;28;20415;-69
2021/04/06 00:45:16;;;;;;;21.10;16.08;;;230.60;1689.60;;;;;;5094101;28;20369;-66
2021/04/06 00:47:43;;;;;;;20.13;15.40;;;230.60;1689.60;;;;;;5093833;28;20360;-68
2021/04/06 00:50:15;;;;;;;21.75;16.05;;;230.60;1689.60;;;;;;5093849;28;20364;-67
2021/04/06 00:52:45;;;;;;;22.80;16.00;;;230.60;1689.60;;;;;;5094084;28;20349;-68
2021/04/06 00:55:19;;;;;;;19.42;15.52;;;230.50;1689.60;;;;;;5093770;28;20517;-67
2021/04/06 00:57:46;;;;;;;19.88;15.88;;;230.50;1689.60;;;;;;5094093;28;20465;-68
2021/04/06 01:00:29;;;;;;;21.17;16.33;;;230.40;1715.20;;;;;;5075592;28;20389;-68
2021/04/06 01:03:10;;;;;;;21.42;16.70;;;230.40;1715.20;;;;;;5093707;28;20349;-68
2021/04/06 01:05:59;;;;;;;22.45;16.02;;;205.70;1715.20;;;;;;5093533;28;20451;-69
2021/04/06 01:08:32;;;;;;;24.25;16.35;;;205.70;1715.20;;;;;;5093601;28;20518;-68
2021/04/06 01:11:00;;;;;;;22.27;16.60;;;205.60;1740.80;;;;;;5093826;28;20410;-69
2021/04/06 01:13:27;;;;;;;22.70;16.00;;;205.60;1740.80;;;;;;5093550;28;20368;-68
2021/04/06 01:15:57;;;;;;;22.08;16.55;;;205.50;1740.80;;;;;;5093452;28;20522;-69
2021/04/06 01:18:25;;;;;;;22.98;16.73;;;205.50;1740.80;;;;;;5093513;28;20406;-68
2021/04/06 01:20:55;;;;;;;24.92;15.85;;;205.40;1740.80;;;;;;5093350;28;20023;-69
2021/04/06 01:23:22;;;;;;;23.25;17.33;;;205.40;1740.80;;;;;;5093351;28;20367;-68
2021/04/06 01:25:59;;;;;;;25.77;16.95;;;205.30;1740.80;;;;;;5093473;28;20360;-67
2021/04/06 01:28:30;;;;;;;26.00;17.17;;;205.40;1740.80;;;;;;5093967;28;20326;-69
2021/04/06 01:30:58;;;;;;;24.70;15.77;;;205.40;1740.80;;;;;;5093255;28;20451;-68
2021/04/06 01:33:31;;;;;;;23.58;15.55;;;205.40;1740.80;;;;;;5093184;28;20479;-68
2021/04/06 01:36:04;;;;;;;24.50;14.50;;;205.30;1715.20;;;;;;5093177;28;20368;-68
2021/04/06 01:38:31;;;;;;;21.70;13.13;;;205.30;1715.20;;;;;;5093285;28;20505;-67
2021/04/06 01:41:02;;;;;;;21.70;12.82;;;205.30;1715.20;;;;;;5077411;28;20513;-68
2021/04/06 01:43:30;;;;;;;19.25;12.10;;;205.30;1689.60;;;;;;5079588;28;20477;-68
2021/04/06 01:46:16;;;;;;;19.45;13.18;;;205.40;1664.00;;;;;;5097560;28;20468;-68
2021/04/06 01:48:44;;;;;;;18.02;11.70;;;205.50;1664.00;;;;;;5097347;28;20468;-68
2021/04/06 01:51:15;;;;;;;18.15;11.90;;;205.50;1689.60;;;;;;5097274;28;20391;-67
2021/04/06 01:53:41;;;;;;;17.45;11.90;;;205.50;1689.60;;;;;;5097237;28;20360;-68
2021/04/06 01:56:15;;;;;;;17.25;13.00;;;205.60;1664.00;;;;;;5097116;28;20525;-67
2021/04/06 01:58:51;;;;;;;19.15;12.68;;;205.60;1638.40;;;;;;5097180;28;20364;-69
2021/04/06 02:01:19;;;;;;;18.88;12.50;;;205.70;1664.00;;;;;;5097077;28;20371;-68
2021/04/06 02:03:52;;;;;;;20.70;12.40;;;205.70;1638.40;;;;;;5097083;28;20453;-68
2021/04/06 02:06:19;;;;;;;17.13;11.52;;;205.70;1638.40;;;;;;5096935;28;20548;-67
2021/04/06 02:08:49;;;;;;;16.98;11.02;;;230.40;1587.20;;;;;;5096855;28;20441;-68
2021/04/06 02:11:27;;;;;;;18.77;12.75;;;230.40;1612.80;;;;;;5097162;28;20413;-68
2021/04/06 02:14:10;;;;;;;20.45;13.45;;;230.50;1587.20;;;;;;5096810;28;20492;-67
2021/04/06 02:16:52;;;;;;;24.50;14.60;;;230.50;1587.20;;;;;;5096734;28;20435;-68
2021/04/06 02:19:25;;;;;;;17.95;12.70;;;230.60;1587.20;;;;;;5097356;28;20467;-67
2021/04/06 02:22:01;;;;;;;19.55;11.50;;;230.60;1561.60;;;;;;5078600;28;20459;-67
2021/04/06 02:24:34;;;;;;;15.55;11.50;;;230.60;1561.60;;;;;;5078408;28;20418;-68
2021/04/06 02:27:07;;;;;;;15.63;11.20;;;230.70;1536.00;;;;;;5097171;28;20414;-69
2021/04/06 02:29:43;;;;;;;17.40;11.70;;;230.70;1536.00;;;;;;5096855;28;20403;-68
2021/04/06 02:32:20;;;;;;;18.30;11.90;;;230.70;1561.60;;;;;;5096488;28;20463;-69
2021/04/06 02:34:48;;;;;;;18.83;11.85;;;230.70;1561.60;;;;;;5096689;28;20342;-67
2021/04/06 02:37:21;;;;;;;23.25;13.48;;;230.70;1561.60;;;;;;5096274;28;20334;-68
2021/04/06 02:39:53;;;;;;;18.95;12.77;;;230.80;1587.20;;;;;;5096956;28;20070;-67
2021/04/06 02:42:32;;;;;;;18.85;12.57;;;230.80;1587.20;;;;;;5096276;28;20428;-68
2021/04/06 02:45:13;;;;;;;20.52;12.65;;;230.80;1561.60;;;;;;5096159;28;20476;-68
2021/04/06 02:47:42;;;;;;;18.38;12.68;;;230.80;1561.60;;;;;;5096454;28;20360;-67
2021/04/06 02:50:14;;;;;;;16.92;12.13;;;230.90;1536.00;;;;;;5096078;28;20459;-69
2021/04/06 02:52:41;;;;;;;16.00;11.57;;;230.90;1561.60;;;;;;5095637;28;20402;-69
2021/04/06 02:55:09;;;;;;;16.58;11.48;;;230.90;1536.00;;;;;;5096165;28;20422;-69
2021/04/06 02:57:44;;;;;;;13.50;11.23;;;230.80;1536.00;;;;;;5096079;28;20390;-68
2021/04/06 03:00:31;;;;;;;18.52;11.23;;;230.90;1536.00;;;;;;5096039;28;20413;-68
2021/04/06 03:03:19;;;;;;;18.45;12.18;;;230.90;1536.00;;;;;;5095933;28;20368;-68
2021/04/06 03:05:45;;;;;;;17.23;10.65;;;230.90;1561.60;;;;;;5095809;28;20354;-68
2021/04/06 03:08:11;;;;;;;17.77;10.73;;;230.90;1536.00;;;;;;5095839;28;20054;-69
2021/04/06 03:10:38;;;;;;;16.45;10.93;;;230.90;1536.00;;;;;;5095615;28;20476;-69
2021/04/06 03:13:14;;;;;;;16.20;11.48;;;231.00;1536.00;;;;;;5095830;28;20439;-68
2021/04/06 03:15:41;;;;;;;16.95;11.35;;;231.00;1510.40;;;;;;5095749;28;20485;-69
2021/04/06 03:18:12;;;;;;;18.67;11.57;;;231.00;1536.00;;;;;;5095687;28;20356;-68
2021/04/06 03:20:39;;;;;;;16.85;12.02;;;230.90;1561.60;;;;;;5095908;28;20528;-69
2021/04/06 03:23:07;;;;;;;14.52;11.13;;;231.00;1561.60;;;;;;5095644;28;20492;-68
2021/04/06 03:25:35;;;;;;;17.48;12.13;;;231.00;1561.60;;;;;;5095465;28;20381;-68
2021/04/06 03:28:13;;;;;;;16.73;11.48;;;231.00;1561.60;;;;;;5095476;28;20401;-69
2021/04/06 03:30:40;;;;;;;21.55;12.90;;;231.00;1561.60;;;;;;5095381;28;20460;-68
2021/04/06 03:33:11;;;;;;;18.65;12.35;;;231.00;1536.00;;;;;;5095343;28;20480;-67
2021/04/06 03:35:40;;;;;;;19.42;12.02;;;231.00;1536.00;;;;;;5095431;28;20074;-68
2021/04/06 03:38:08;;;;;;;21.13;12.57;;;231.00;1561.60;;;;;;5095267;28;20496;-68
2021/04/06 03:40:38;;;;;;;17.15;11.73;;;231.00;1587.20;;;;;;5095176;28;20464;-68
2021/04/06 03:43:17;;;;;;;19.83;13.50;;;231.00;1587.20;;;;;;5095153;28;20391;-68
2021/04/06 03:46:02;;;;;;;18.75;12.38;;;231.00;1561.60;;;;;;5095263;28;20419;-66
2021/04/06 03:48:30;;;;;;;19.23;12.18;;;231.00;1587.20;;;;;;5094998;28;20360;-68
2021/04/06 03:50:56;;;;;;;21.83;13.05;;;231.00;1587.20;;;;;;5095250;28;20375;-68
2021/04/06 03:53:25;;;;;;;25.50;14.13;;;231.00;1587.20;;;;;;5076819;28;20375;-68
2021/04/06 03:56:05;;;;;;;18.10;12.68;;;231.00;1587.20;;;;;;5094869;28;20372;-67
2021/04/06 03:58:39;;;;;;;18.13;12.30;;;231.00;1587.20;;;;;;5094865;28;20364;-69
2021/04/06 04:01:07;;;;;;;19.90;12.32;;;231.00;1587.20;;;;;;5094849;28;20453;-67
2021/04/06 04:03:34;;;;;;;23.05;13.23;;;231.00;1587.20;;;;;;5093772;28;20559;-68
2021/04/06 04:06:00;;;;;;;21.90;13.73;;;231.00;1587.20;;;;;;5094509;28;20476;-67
2021/04/06 04:08:26;;;;;;;23.45;13.32;;;231.00;1587.20;;;;;;5094918;28;20126;-68
2021/04/06 04:10:53;;;;;;;21.92;13.75;;;231.00;1587.20;;;;;;5094600;28;20372;-68
2021/04/06 04:13:19;;;;;;;20.35;12.82;;;231.00;1587.20;;;;;;5094543;28;20522;-68
2021/04/06 04:15:46;;;;;;;22.73;14.65;;;231.00;1587.20;;;;;;5094527;28;20411;-67
2021/04/06 04:18:12;;;;;;;22.70;13.00;;;230.90;1587.20;;;;;;5094387;28;20369;-68
2021/04/06 04:20:38;;;;;;;21.70;13.93;;;230.90;1587.20;;;;;;5094631;28;20345;-67
2021/04/06 04:23:04;;;;;;;23.70;14.48;;;230.90;1587.20;;;;;;5094331;28;20521;-68
2021/04/06 04:25:31;;;;;;;19.83;12.52;;;230.90;1587.20;;;;;;5094154;28;20112;-67
2021/04/06 04:27:57;;;;;;;18.20;11.70;;;230.90;1587.20;;;;;;5094254;28;20371;-69
2021/04/06 04:30:38;;;;;;;31.70;11.07;;;230.90;1587.20;;;;;;5094495;28;20368;-68
2021/04/06 04:33:08;;;;;;;14.57;5.47;;;231.00;1561.60;;;;;;5094167;28;20473;-67
2021/04/06 04:35:36;;;;;;;19.00;5.15;;;230.80;1664.00;;;;;;5094055;28;20380;-67
2021/04/06 04:38:04;;;;;;;32.58;6.85;;;230.70;1664.00;;;;;;5094145;28;20468;-68
2021/04/06 04:40:30;;;;;;;24.60;6.25;;;230.60;1689.60;;;;;;5094056;28;20411;-69
2021/04/06 04:42:57;;;;;;;27.60;3.42;;;230.50;1715.20;;;;;;5094574;28;20457;-68
2021/04/06 04:45:23;;;;;;;28.85;4.80;;;230.40;1664.00;;;;;;5093928;28;20425;-69
2021/04/06 04:47:50;;;;;;;30.67;4.82;;;205.70;1689.60;;;;;;5093900;28;20391;-67
2021/04/06 04:50:16;;;;;;;22.13;4.47;;;205.50;1689.60;;;;;;5093856;28;20482;-68
2021/04/06 04:52:44;;;;;;;15.70;1.90;;;205.30;1689.60;;;;;;5094167;28;20506;-69
2021/04/06 04:55:15;;;;;;;14.52;1.83;;;205.30;1689.60;;;;;;5094072;28;20504;-70
2021/04/06 04:57:42;;;;;;;22.95;3.13;;;205.10;1715.20;;;;;;5094057;28;20460;-68
2021/04/06 05:00:10;;;;;;;18.08;2.40;;;205.00;1715.20;;;;;;5094062;28;20028;-68
2021/04/06 05:02:37;;;;;;;10.43;2.13;;;205.00;1740.80;;;;;;5093756;28;20411;-69
2021/04/06 05:05:05;;;;;;;15.32;1.42;;;205.00;1740.80;;;;;;5093728;28;20414;-68
2021/04/06 05:07:31;;;;;;;16.20;2.08;;;205.00;1740.80;;;;;;5076096;28;20407;-68
2021/04/06 05:09:57;;;;;;;4.28;1.40;;;204.90;1715.20;;;;;;5093904;28;20424;-66
2021/04/06 05:12:23;;;;;;;5.47;1.48;;;204.80;1715.20;;;;;;5093884;28;20465;-70
2021/04/06 05:14:51;;;;;;;19.95;1.77;;;204.80;1740.80;;;;;;5093552;28;20389;-68
2021/04/06 05:17:17;;;;;;;8.60;1.50;;;204.80;1715.20;;;;;;5093494;28;20368;-67
2021/04/06 05:19:44;;;;;;;7.85;1.55;;;180.10;1740.80;;;;;;5093708;28;20361;-69
2021/04/06 05:22:10;;;;;;;5.40;1.67;;;180.10;1715.20;;;;;;5093282;28;20472;-68
2021/04/06 05:24:36;;;;;;;13.55;3.58;;;180.10;1715.20;;;;;;5093436;28;20375;-67
2021/04/06 05:27:03;;;;;;;10.32;3.67;;;180.00;1740.80;;;;;;5093255;28;20044;-68
2021/04/06 05:29:29;;;;;;;19.00;5.65;;;180.00;1715.20;;;;;;5094211;28;20440;-70
2021/04/06 05:31:55;;;;;;;6.28;1.40;;;180.00;1715.20;;;;;;5093389;28;20517;-68
2021/04/06 05:34:21;;;;;;;5.55;1.30;;;180.00;1715.20;;;;;;5093425;28;20479;-69
2021/04/06 05:36:48;;;;;;;8.52;3.40;;;180.00;1715.20;;;;;;5093623;28;20367;-67
2021/04/06 05:39:15;;;;;;;8.75;3.20;;;180.00;1740.80;;;;;;5093133;28;20048;-70
2021/04/06 05:41:46;;;;;;;8.90;1.90;;;180.00;1715.20;;;;;;5093310;28;20460;-69
2021/04/06 05:44:12;;;;;;;6.45;1.73;;;179.90;1689.60;;;;;;5093265;28;20350;-68
2021/04/06 05:46:41;;;;;;;9.02;3.55;;;179.90;1689.60;;;;;;5093394;28;20456;-70
2021/04/06 05:49:16;;;;;;;6.63;2.10;;;179.80;1689.60;;;;;;5093019;28;20418;-68
2021/04/06 05:51:43;;;;;;;8.32;2.60;;;179.60;1689.60;;;;;;5093123;28;20473;-68
2021/04/06 05:54:14;;;;;;;5.43;1.50;;;179.60;1740.80;;;;;;5093015;28;20449;-69
2021/04/06 05:56:41;;;;;;;5.97;2.13;;;179.50;1715.20;;;;;;5093104;28;20460;-69
2021/04/06 05:59:08;;;;;;;8.23;1.75;;;179.50;1740.80;;;;;;5092952;28;20395;-67
2021/04/06 06:01:39;;;;;;;3.08;1.33;;;179.50;1740.80;;;;;;5093006;28;20383;-69
2021/04/06 06:04:10;;;;;;;5.70;2.33;;;179.50;1740.80;;;;;;5092928;28;20370;-68
2021/04/06 06:06:37;;;;;;;8.77;3.00;;;179.50;1740.80;;;;;;5092891;28;20417;-69
2021/04/06 06:09:05;;;;;;;3.78;1.20;;;179.40;1740.80;;;;;;5092927;28;20445;-67
2021/04/06 06:11:32;;;;;;;11.05;5.10;;;179.30;1715.20;;;;;;5093191;28;20398;-69
2021/04/06 06:13:59;;;;;;;6.25;1.85;;;179.20;1689.60;;;;;;5093114;28;20356;-68
2021/04/06 06:16:27;;;;;;;7.50;1.60;;;179.20;1715.20;;;;;;5092908;28;20477;-70
2021/04/06 06:18:54;;;;;;;2.35;0.95;;;179.20;1740.80;;;;;;5092809;28;20384;-69
2021/04/06 06:21:23;;;;;;;6.00;1.65;;;179.20;1715.20;;;;;;5092788;28;20495;-69
2021/04/06 06:23:50;;;;;;;9.05;3.83;;;179.20;1715.20;;;;;;5092785;28;20526;-71
2021/04/06 06:26:18;;;;;;;28.52;8.35;;;154.50;1740.80;;;;;;5092789;28;20380;-69
2021/04/06 06:29:07;;;;;;;11.32;3.47;;;154.40;1715.20;;;;;;5096398;28;20375;-70
2021/04/06 06:31:35;;;;;;;9.85;2.25;;;154.30;1740.80;;;;;;5066792;28;20450;-69
2021/04/06 06:34:01;;;;;;;9.90;3.15;;;154.20;1715.20;;;;;;5097457;28;20353;-69
2021/04/06 06:36:27;;;;;;;27.13;12.95;;;154.20;1715.20;;;;;;5096780;28;20492;-68
2021/04/06 06:39:03;;;;;;;11.13;5.30;;;154.20;1715.20;;;;;;5096498;28;20397;-70
2021/04/06 06:41:29;;;;;;;8.57;4.35;;;154.30;1740.80;;;;;;5096657;28;20338;-70
2021/04/06 06:43:56;;;;;;;8.25;4.28;;;154.20;1689.60;;;;;;5096494;28;20420;-70
2021/04/06 06:46:30;;;;;;;15.27;7.93;;;154.20;1689.60;;;;;;5096433;28;20464;-68
2021/04/06 06:49:08;;;;;;;8.27;3.60;;;154.20;1664.00;;;;;;5096699;28;20456;-69
2021/04/06 06:51:36;;;;;;;17.10;8.82;;;154.20;1689.60;;;;;;5096774;28;20012;-69
2021/04/06 06:54:04;;;;;;;4.25;2.13;;;154.20;1664.00;;;;;;5096742;28;20468;-73
2021/04/06 06:56:38;;;;;;;31.45;14.05;;;154.20;1664.00;;;;;;5096300;28;20368;-71
2021/04/06 06:59:06;;;;;;;41.63;17.40;;;154.00;1664.00;;;;;;5096379;28;20338;-72
2021/04/06 07:01:34;;;;;;;18.90;7.10;;;154.00;1689.60;;;;;;5096955;28;20371;-73
2021/04/06 07:04:08;;;;;;;10.52;3.35;;;154.00;1689.60;;;;;;5096205;28;20399;-73
2021/04/06 07:06:36;;;;;;;10.50;4.22;;;154.10;1689.60;;;;;;5096137;28;20398;-74
2021/04/06 07:09:29;;;;;;;6.68;2.83;;;154.00;1664.00;;;;;;5096067;28;20403;-74
2021/04/06 07:11:58;;;;;;;9.68;3.38;;;154.10;1664.00;;;;;;5096059;28;20408;-73
2021/04/06 07:14:26;;;;;;;4.82;2.33;;;154.10;1664.00;;;;;;5095962;28;20338;-72
2021/04/06 07:16:54;;;;;;;7.32;2.72;;;154.00;1664.00;;;;;;5095918;28;20402;-68
2021/04/06 07:19:22;;;;;;;5.40;2.47;;;154.10;1664.00;;;;;;5096284;28;20141;-68
2021/04/06 07:21:52;;;;;;;5.82;3.40;;;154.00;1664.00;;;;;;5095919;28;20359;-71
2021/04/06 07:24:27;;;;;;;5.35;3.50;;;154.00;1664.00;;;;;;5095969;28;20097;-72
2021/04/06 07:26:55;;;;;;;10.15;2.00;;;154.00;1689.60;;;;;;5095760;28;20035;-74
2021/04/06 07:29:22;;;;;;;8.50;3.10;;;154.00;1664.00;;;;;;5096114;28;20356;-68
2021/04/06 07:31:48;;;;;;;5.30;2.45;;;154.00;1664.00;;;;;;5077543;28;20397;-68
2021/04/06 07:34:17;;;;;;;8.10;3.58;;;154.00;1664.00;;;;;;5095617;28;20020;-70
2021/04/06 07:36:44;;;;;;;23.63;13.32;;;154.00;1664.00;;;;;;5095639;28;20399;-68
2021/04/06 07:39:13;;;;;;;7.90;2.80;;;154.10;1638.40;;;;;;5095477;28;20428;-69
2021/04/06 07:41:42;;;;;;;9.23;4.68;;;154.00;1638.40;;;;;;5077909;28;20348;-72
2021/04/06 07:44:09;;;;;;;3.85;2.00;;;154.10;1638.40;;;;;;5077940;28;20367;-73
2021/04/06 07:46:35;;;;;;;9.63;5.28;;;154.10;1612.80;;;;;;5097525;28;20020;-70
2021/04/06 07:49:10;;;;;;;4.85;1.50;;;154.10;1612.80;;;;;;5095380;28;20091;-73
2021/04/06 07:51:51;;;;;;;4.43;1.70;;;154.10;1612.80;;;;;;5096182;28;20424;-70
2021/04/06 07:54:20;;;;;;;6.00;1.40;;;154.00;1612.80;;;;;;5102259;28;20365;-69
2021/04/06 07:56:56;;;;;;;43.03;23.83;;;154.00;1587.20;;;;;;5095507;28;20398;-70
2021/04/06 07:59:25;;;;;;;14.73;5.32;;;154.00;1587.20;;;;;;5095124;28;20377;-70
2021/04/06 08:01:54;;;;;;;5.90;2.80;;;154.00;1561.60;;;;;;5095475;28;20337;-69
2021/04/06 08:04:22;;;;;;;10.18;4.10;;;154.00;1561.60;;;;;;5095041;28;20456;-71
2021/04/06 08:06:51;;;;;;;14.98;6.93;;;154.10;1536.00;;;;;;5076827;28;20028;-70
2021/04/06 08:09:30;;;;;;;31.35;16.67;;;154.10;1561.60;;;;;;5095320;28;20341;-70
2021/04/06 08:12:10;;;;;;;17.90;9.38;;;154.10;1561.60;;;;;;5095255;28;20364;-69
2021/04/06 08:14:50;;;;;;;14.80;6.65;;;154.00;1561.60;;;;;;5094936;28;20023;-70
2021/04/06 08:20:17;;;;;;;8.35;2.67;;;153.90;1587.20;;;;;;5094823;28;20477;-70
2021/04/06 08:22:43;;;;;;;22.95;8.93;;;153.90;1587.20;;;;;;5090984;28;20419;-70
2021/04/06 08:25:28;;;;;;;25.02;8.82;;;153.80;1612.80;;;;;;5095186;28;20020;-69
2021/04/06 08:28:03;;;;;;;16.10;4.68;;;153.70;1612.80;;;;;;5076411;28;20028;-70
2021/04/06 08:30:37;;;;;;;63.85;22.13;;;153.70;1638.40;;;;;;5094858;28;20395;-69
2021/04/06 08:33:04;;;;;;;48.42;17.65;;;153.60;1638.40;;;;;;5094847;28;20484;-68
2021/04/06 08:35:46;;;;;;;59.45;22.95;;;153.70;1638.40;;;;;;5094407;28;20020;-68
2021/04/06 08:38:38;;;;;;;19.85;8.63;;;153.80;1638.40;;;;;;5094307;28;20380;-68
2021/04/06 08:41:30;;;;;;;14.80;6.38;;;153.70;1612.80;;;;;;5090744;28;20384;-70
2021/04/06 08:43:59;;;;;;;10.32;4.38;;;153.70;1612.80;;;;;;5094445;28;20078;-72
2021/04/06 08:46:27;;;;;;;13.88;6.68;;;153.70;1612.80;;;;;;5094450;28;20491;-71
2021/04/06 08:48:56;;;;;;;23.38;10.30;;;153.80;1587.20;;;;;;5094458;28;20475;-68
2021/04/06 08:51:28;;;;;;;35.92;17.05;;;153.90;1561.60;;;;;;5093943;28;20457;-68
2021/04/06 08:54:00;;;;;;;42.63;16.75;;;154.00;1587.20;;;;;;5094157;28;20361;-69
2021/04/06 08:56:37;;;;;;;20.83;10.38;;;154.00;1561.60;;;;;;5094442;28;20471;-75
2021/04/06 08:59:14;;;;;;;25.50;12.30;;;154.10;1587.20;;;;;;5094860;28;20020;-70
2021/04/06 09:01:41;;;;;;;32.45;13.15;;;154.10;1587.20;;;;;;5094028;28;20403;-69
2021/04/06 09:04:20;;;;;;;28.73;13.50;;;154.10;1561.60;;;;;;5094074;28;20472;-69
2021/04/06 09:06:47;;;;;;;31.50;13.88;;;154.10;1510.40;;;;;;5094757;28;20475;-70
2021/04/06 09:09:17;;;;;;;33.50;13.73;;;154.10;1510.40;;;;;;5093968;28;20478;-72
2021/04/06 09:11:44;;;;;;;49.70;27.33;;;154.20;1536.00;;;;;;5094054;28;20478;-69
2021/04/06 09:14:10;;;;;;;20.38;6.75;;;154.20;1484.80;;;;;;5093897;28;20368;-68
2021/04/06 09:16:37;;;;;;;26.30;12.25;;;154.20;1510.40;;;;;;5093799;28;20372;-69
2021/04/06 09:19:14;;;;;;;15.20;5.80;;;154.10;1561.60;;;;;;5093829;28;20453;-68
2021/04/06 09:21:47;;;;;;;17.92;7.40;;;154.10;1587.20;;;;;;5075715;28;20369;-69
2021/04/06 09:24:15;;;;;;;9.65;3.05;;;154.00;1638.40;;;;;;5094420;28;20540;-71
2021/04/06 09:26:42;;;;;;;8.77;3.67;;;153.80;1638.40;;;;;;5093701;28;20483;-69
2021/04/06 09:29:10;;;;;;;3.63;2.22;;;153.80;1638.40;;;;;;5096357;28;20050;-68
2021/04/06 09:31:40;;;;;;;4.70;2.53;;;153.70;1664.00;;;;;;5093655;28;20464;-69
2021/04/06 09:34:09;;;;;;;7.38;3.03;;;153.60;1689.60;;;;;;5075581;28;20373;-68
2021/04/06 09:36:37;;;;;;;7.80;2.75;;;128.90;1689.60;;;;;;5094210;28;20444;-68
2021/04/06 09:39:05;;;;;;;8.57;4.00;;;153.60;1689.60;;;;;;5095653;28;20480;-73
2021/04/06 09:41:35;;;;;;;10.68;4.57;;;153.60;1689.60;;;;;;5095195;28;20536;-68
2021/04/06 09:44:03;;;;;;;17.98;7.05;;;153.60;1715.20;;;;;;5093421;28;20395;-68
2021/04/06 09:46:48;;;;;;;13.57;4.40;;;153.60;1689.60;;;;;;5093290;28;20350;-68
2021/04/06 09:49:15;;;;;;;14.60;5.03;;;153.60;1689.60;;;;;;5093508;28;20420;-68
2021/04/06 09:51:50;;;;;;;21.90;7.45;;;153.60;1715.20;;;;;;5093364;28;20460;-69
2021/04/06 09:54:30;;;;;;;15.15;6.78;;;153.70;1715.20;;;;;;5093491;28;20066;-67
2021/04/06 09:56:58;;;;;;;13.45;5.90;;;153.60;1766.40;;;;;;5093433;28;20368;-69
2021/04/06 09:59:25;;;;;;;14.32;7.13;;;153.70;1766.40;;;;;;5093392;28;20372;-67
2021/04/06 10:01:54;;;;;;;16.90;10.60;;;153.80;1740.80;;;;;;5093604;28;20354;-69
2021/04/06 10:04:39;;;;;;;15.45;8.45;;;153.80;1792.00;;;;;;5097603;28;20372;-69
2021/04/06 10:07:27;;;;;;;66.47;30.73;;;153.80;1792.00;;;;;;5097808;28;20369;-68
2021/04/06 10:09:55;;;;;;;43.10;20.13;;;153.70;1792.00;;;;;;5097590;28;20399;-68
2021/04/06 10:12:24;;;;;;;16.17;9.05;;;153.90;1740.80;;;;;;5097282;28;20483;-68
2021/04/06 10:14:51;;;;;;;15.77;8.05;;;154.00;1740.80;;;;;;5097350;28;20330;-69
2021/04/06 10:17:21;;;;;;;32.53;17.17;;;154.10;1689.60;;;;;;5097359;28;20341;-68
2021/04/06 10:20:19;;;;;;;23.90;13.07;;;154.20;1638.40;;;;;;5079257;28;20349;-68
2021/04/06 10:22:50;;;;;;;21.35;10.50;;;154.40;1638.40;;;;;;5081637;28;20428;-68
2021/04/06 10:25:20;;;;;;;23.67;5.95;;;154.40;1587.20;;;;;;5097324;28;20459;-68
2021/04/06 10:27:53;;;;;;;76.43;32.65;;;154.50;1587.20;;;;;;5097141;28;20369;-67
2021/04/06 10:30:32;;;;;;;13.02;6.35;;;179.20;1587.20;;;;;;5096989;28;20427;-69
2021/04/06 10:33:19;;;;;;;5.90;2.60;;;179.30;1561.60;;;;;;5097264;28;20392;-68
2021/04/06 10:35:48;;;;;;;5.97;2.97;;;179.40;1536.00;;;;;;5096824;28;20368;-68
2021/04/06 10:38:28;;;;;;;13.43;6.65;;;179.50;1510.40;;;;;;5096602;28;20354;-68
2021/04/06 10:41:16;;;;;;;18.38;7.88;;;179.60;1510.40;;;;;;5096790;28;20465;-69
2021/04/06 10:43:50;;;;;;;15.32;7.40;;;179.70;1484.80;;;;;;5096744;28;20418;-69
2021/04/06 10:46:24;;;;;;;6.30;3.22;;;179.60;1484.80;;;;;;5096503;28;20384;-69
2021/04/06 10:49:05;;;;;;;6.93;2.85;;;179.60;1484.80;;;;;;5097177;28;20355;-69
2021/04/06 10:51:34;;;;;;;15.20;5.40;;;179.60;1459.20;;;;;;5097358;28;20406;-69
2021/04/06 10:54:12;;;;;;;12.95;5.68;;;179.60;1484.80;;;;;;5097023;28;20348;-68
2021/04/06 10:56:44;;;;;;;8.77;2.85;;;179.70;1510.40;;;;;;5096492;28;20548;-68
2021/04/06 10:59:13;;;;;;;8.40;2.30;;;179.70;1484.80;;;;;;5096236;28;20338;-68
2021/04/06 11:01:43;;;;;;;19.17;6.43;;;179.70;1459.20;;;;;;5096273;28;20359;-68
2021/04/06 11:04:14;;;;;;;13.52;5.00;;;179.80;1484.80;;;;;;5096127;28;20024;-68
2021/04/06 11:06:45;;;;;;;14.93;6.35;;;179.80;1484.80;;;;;;5096348;28;20436;-68
2021/04/06 11:09:15;;;;;;;15.63;6.10;;;179.80;1484.80;;;;;;5096004;28;20360;-69
2021/04/06 11:11:43;;;;;;;18.35;6.93;;;179.80;1484.80;;;;;;5096493;28;20360;-68
2021/04/06 11:14:12;;;;;;;13.95;5.93;;;179.80;1484.80;;;;;;5095301;28;20333;-68
2021/04/06 11:16:40;;;;;;;11.43;3.85;;;179.80;1484.80;;;;;;5096121;28;20364;-68
2021/04/06 11:19:10;;;;;;;13.10;5.68;;;179.70;1484.80;;;;;;5095925;28;20515;-68
2021/04/06 11:21:45;;;;;;;9.57;3.70;;;179.70;1484.80;;;;;;5095773;28;20353;-67
2021/04/06 11:24:13;;;;;;;12.13;4.07;;;179.70;1484.80;;;;;;5095927;28;20020;-67
2021/04/06 11:26:40;;;;;;;9.93;4.57;;;179.70;1459.20;;;;;;5095877;28;20364;-66
2021/04/06 11:29:08;;;;;;;15.43;5.15;;;179.80;1459.20;;;;;;5095919;28;20357;-67
2021/04/06 11:31:36;;;;;;;23.63;9.27;;;179.80;1459.20;;;;;;5095938;28;20399;-69
2021/04/06 11:34:04;;;;;;;20.77;7.63;;;179.90;1433.60;;;;;;5095554;28;20330;-69
2021/04/06 11:36:30;;;;;;;15.20;5.60;;;180.00;1408.00;;;;;;5095525;28;20027;-69
2021/04/06 11:38:56;;;;;;;20.50;9.50;;;180.00;1356.80;;;;;;5095254;28;20044;-69
2021/04/06 11:41:23;;;;;;;30.38;15.55;;;180.10;1356.80;;;;;;5095436;28;20361;-69
2021/04/06 11:43:49;;;;;;;18.77;7.05;;;204.80;1331.20;;;;;;5095586;28;20415;-68
2021/04/06 11:46:17;;;;;;;12.13;5.28;;;204.80;1280.00;;;;;;5095155;28;20456;-68
2021/04/06 11:48:44;;;;;;;20.17;9.07;;;180.10;1280.00;;;;;;5095281;28;20528;-68
2021/04/06 11:51:13;;;;;;;21.88;9.13;;;204.80;1305.60;;;;;;5095229;28;20407;-69
2021/04/06 11:53:40;;;;;;;18.33;6.70;;;204.80;1305.60;;;;;;5095451;28;20402;-68
2021/04/06 11:56:06;;;;;;;10.95;4.82;;;204.90;1305.60;;;;;;5095137;28;20471;-69
2021/04/06 11:58:32;;;;;;;14.25;8.35;;;205.00;1305.60;;;;;;5095063;28;20368;-70
2021/04/06 12:00:59;;;;;;;72.72;35.30;;;205.00;1305.60;;;;;;5095060;28;20402;-69
2021/04/06 12:03:26;;;;;;;28.83;12.25;;;204.90;1254.40;;;;;;5095010;28;20413;-68
2021/04/06 12:05:52;;;;;;;25.10;12.27;;;204.90;1254.40;;;;;;5094830;28;20467;-69
2021/04/06 12:08:18;;;;;;;8.50;4.60;;;205.00;1254.40;;;;;;5095340;28;20375;-69
2021/04/06 12:10:46;;;;;;;13.98;6.57;;;205.00;1280.00;;;;;;5096333;28;20150;-75
2021/04/06 12:13:13;;;;;;;12.25;7.95;;;205.10;1280.00;;;;;;5077493;28;20426;-68
2021/04/06 12:15:39;;;;;;;15.68;9.32;;;205.10;1280.00;;;;;;5094824;28;20357;-67
2021/04/06 12:18:06;;;;;;;29.70;12.45;;;205.10;1280.00;;;;;;5094788;28;20377;-68
2021/04/06 12:20:34;;;;;;;60.53;24.52;;;205.10;1280.00;;;;;;5094799;28;20444;-67
2021/04/06 12:23:00;;;;;;;247.93;106.68;;;205.10;1280.00;;;;;;5094661;28;20361;-67
2021/04/06 12:25:26;;;;;;;21.10;10.88;;;205.10;1305.60;;;;;;5094340;28;20508;-66
2021/04/06 12:27:54;;;;;;;28.30;14.23;;;205.00;1280.00;;;;;;5094688;28;20174;-66